sensor_id;sensor_type;location;lat;lon;timestamp;P1;durP1;ratioP1;P2;durP2;ratioP2
59685;SDS011;45554;51.096;16.976;2022-11-15T00:01:08;62.30;;;32.70;;
59685;SDS011;45554;51.096;16.976;2022-11-15T00:04:00;64.80;;;35.50;;
59685;SDS011;45554;51.096;16.976;2022-11-15T00:06:46;68.20;;;37.30;;
59685;SDS011;45554;51.096;16.976;2022-11-15T00:09:33;66.40;;;34.90;;
59685;SDS011;45554;51.096;16.976;2022-11-15T00:12:20;58.00;;;33.70;;
59685;SDS011;45554;51.096;16.976;2022-11-15T00:15:06;63.80;;;36.10;;
59685;SDS011;45554;51.096;16.976;2022-11-15T00:17:53;63.30;;;35.60;;
59685;SDS011;45554;51.096;16.976;2022-11-15T00:20:40;61.60;;;33.40;;
59685;SDS011;45554;51.096;16.976;2022-11-15T00:23:27;60.70;;;34.00;;
59685;SDS011;45554;51.096;16.976;2022-11-15T00:26:14;62.20;;;34.40;;
59685;SDS011;45554;51.096;16.976;2022-11-15T00:29:01;64.20;;;34.80;;
59685;SDS011;45554;51.096;16.976;2022-11-15T00:31:48;59.90;;;33.50;;
59685;SDS011;45554;51.096;16.976;2022-11-15T00:34:34;63.60;;;33.70;;
59685;SDS011;45554;51.096;16.976;2022-11-15T00:37:21;58.40;;;31.70;;
59685;SDS011;45554;51.096;16.976;2022-11-15T00:40:08;59.90;;;32.60;;
59685;SDS011;45554;51.096;16.976;2022-11-15T00:42:55;58.10;;;33.30;;
59685;SDS011;45554;51.096;16.976;2022-11-15T00:45:42;60.10;;;30.70;;
59685;SDS011;45554;51.096;16.976;2022-11-15T00:48:29;62.70;;;31.70;;
59685;SDS011;45554;51.096;16.976;2022-11-15T00:51:15;61.60;;;33.20;;
59685;SDS011;45554;51.096;16.976;2022-11-15T00:54:02;62.20;;;34.30;;
59685;SDS011;45554;51.096;16.976;2022-11-15T00:56:48;62.70;;;34.40;;
59685;SDS011;45554;51.096;16.976;2022-11-15T00:59:35;59.00;;;32.60;;
59685;SDS011;45554;51.096;16.976;2022-11-15T01:02:22;62.80;;;32.90;;
59685;SDS011;45554;51.096;16.976;2022-11-15T01:05:13;55.10;;;32.10;;
59685;SDS011;45554;51.096;16.976;2022-11-15T01:08:04;58.50;;;31.00;;
59685;SDS011;45554;51.096;16.976;2022-11-15T01:10:54;56.50;;;30.80;;
59685;SDS011;45554;51.096;16.976;2022-11-15T01:13:43;51.90;;;29.10;;
59685;SDS011;45554;51.096;16.976;2022-11-15T01:16:31;55.40;;;31.50;;
59685;SDS011;45554;51.096;16.976;2022-11-15T01:19:20;57.20;;;30.60;;
59685;SDS011;45554;51.096;16.976;2022-11-15T01:22:09;57.00;;;28.90;;
59685;SDS011;45554;51.096;16.976;2022-11-15T01:24:55;57.90;;;31.60;;
59685;SDS011;45554;51.096;16.976;2022-11-15T01:27:42;56.40;;;30.00;;
59685;SDS011;45554;51.096;16.976;2022-11-15T01:30:29;53.50;;;28.30;;
59685;SDS011;45554;51.096;16.976;2022-11-15T01:33:16;55.10;;;29.60;;
59685;SDS011;45554;51.096;16.976;2022-11-15T01:36:06;58.10;;;29.30;;
59685;SDS011;45554;51.096;16.976;2022-11-15T01:38:58;57.50;;;30.20;;
59685;SDS011;45554;51.096;16.976;2022-11-15T01:41:45;57.00;;;31.00;;
59685;SDS011;45554;51.096;16.976;2022-11-15T01:44:36;53.00;;;28.80;;
59685;SDS011;45554;51.096;16.976;2022-11-15T01:47:47;55.90;;;29.00;;
59685;SDS011;45554;51.096;16.976;2022-11-15T01:53:21;55.90;;;29.80;;
59685;SDS011;45554;51.096;16.976;2022-11-15T01:56:11;55.20;;;30.00;;
59685;SDS011;45554;51.096;16.976;2022-11-15T01:59:02;55.40;;;29.50;;
59685;SDS011;45554;51.096;16.976;2022-11-15T02:01:52;53.60;;;28.70;;
59685;SDS011;45554;51.096;16.976;2022-11-15T02:04:40;55.60;;;29.70;;
59685;SDS011;45554;51.096;16.976;2022-11-15T02:07:28;55.40;;;28.70;;
59685;SDS011;45554;51.096;16.976;2022-11-15T02:10:18;54.80;;;30.20;;
59685;SDS011;45554;51.096;16.976;2022-11-15T02:13:06;55.90;;;29.00;;
59685;SDS011;45554;51.096;16.976;2022-11-15T02:31:45;57.90;;;30.90;;
59685;SDS011;45554;51.096;16.976;2022-11-15T02:37:52;55.30;;;27.60;;
59685;SDS011;45554;51.096;16.976;2022-11-15T02:43:45;52.40;;;28.90;;
59685;SDS011;45554;51.096;16.976;2022-11-15T02:46:45;52.40;;;29.10;;
59685;SDS011;45554;51.096;16.976;2022-11-15T02:49:56;56.10;;;28.80;;
59685;SDS011;45554;51.096;16.976;2022-11-15T02:52:50;50.50;;;28.10;;
59685;SDS011;45554;51.096;16.976;2022-11-15T02:55:41;53.70;;;28.50;;
59685;SDS011;45554;51.096;16.976;2022-11-15T03:04:45;55.50;;;28.10;;
59685;SDS011;45554;51.096;16.976;2022-11-15T03:17:09;52.10;;;27.40;;
59685;SDS011;45554;51.096;16.976;2022-11-15T03:20:03;52.60;;;29.10;;
59685;SDS011;45554;51.096;16.976;2022-11-15T03:25:47;52.00;;;27.50;;
59685;SDS011;45554;51.096;16.976;2022-11-15T03:28:38;53.20;;;28.60;;
59685;SDS011;45554;51.096;16.976;2022-11-15T03:31:28;47.90;;;25.40;;
59685;SDS011;45554;51.096;16.976;2022-11-15T03:34:53;49.90;;;26.30;;
59685;SDS011;45554;51.096;16.976;2022-11-15T03:37:53;48.40;;;27.30;;
59685;SDS011;45554;51.096;16.976;2022-11-15T03:40:51;53.00;;;27.80;;
59685;SDS011;45554;51.096;16.976;2022-11-15T03:49:35;52.60;;;27.30;;
59685;SDS011;45554;51.096;16.976;2022-11-15T03:52:24;49.40;;;26.80;;
59685;SDS011;45554;51.096;16.976;2022-11-15T03:55:13;48.40;;;26.00;;
59685;SDS011;45554;51.096;16.976;2022-11-15T03:58:02;52.40;;;27.30;;
59685;SDS011;45554;51.096;16.976;2022-11-15T04:00:48;45.30;;;25.30;;
59685;SDS011;45554;51.096;16.976;2022-11-15T04:03:35;49.00;;;27.40;;
59685;SDS011;45554;51.096;16.976;2022-11-15T04:06:22;46.40;;;25.20;;
59685;SDS011;45554;51.096;16.976;2022-11-15T04:09:08;52.20;;;27.60;;
59685;SDS011;45554;51.096;16.976;2022-11-15T04:11:55;49.70;;;27.60;;
59685;SDS011;45554;51.096;16.976;2022-11-15T04:14:42;49.60;;;27.80;;
59685;SDS011;45554;51.096;16.976;2022-11-15T04:17:49;50.80;;;26.90;;
59685;SDS011;45554;51.096;16.976;2022-11-15T04:20:37;53.70;;;26.80;;
59685;SDS011;45554;51.096;16.976;2022-11-15T04:23:42;48.60;;;25.10;;
59685;SDS011;45554;51.096;16.976;2022-11-15T04:26:40;47.30;;;26.90;;
59685;SDS011;45554;51.096;16.976;2022-11-15T04:29:27;49.40;;;26.60;;
59685;SDS011;45554;51.096;16.976;2022-11-15T04:32:22;54.50;;;26.10;;
59685;SDS011;45554;51.096;16.976;2022-11-15T04:35:09;50.60;;;25.80;;
59685;SDS011;45554;51.096;16.976;2022-11-15T04:37:55;50.80;;;26.90;;
59685;SDS011;45554;51.096;16.976;2022-11-15T04:40:43;54.20;;;27.30;;
59685;SDS011;45554;51.096;16.976;2022-11-15T04:43:29;50.50;;;27.50;;
59685;SDS011;45554;51.096;16.976;2022-11-15T04:46:17;50.30;;;26.60;;
59685;SDS011;45554;51.096;16.976;2022-11-15T04:49:04;51.30;;;26.80;;
59685;SDS011;45554;51.096;16.976;2022-11-15T04:51:50;51.10;;;26.80;;
59685;SDS011;45554;51.096;16.976;2022-11-15T04:54:37;43.80;;;24.90;;
59685;SDS011;45554;51.096;16.976;2022-11-15T04:57:23;49.50;;;25.50;;
59685;SDS011;45554;51.096;16.976;2022-11-15T05:00:14;45.70;;;25.50;;
59685;SDS011;45554;51.096;16.976;2022-11-15T05:03:02;45.80;;;26.10;;
59685;SDS011;45554;51.096;16.976;2022-11-15T05:06:07;49.00;;;26.50;;
59685;SDS011;45554;51.096;16.976;2022-11-15T05:08:54;48.00;;;26.40;;
59685;SDS011;45554;51.096;16.976;2022-11-15T05:11:41;49.50;;;27.10;;
59685;SDS011;45554;51.096;16.976;2022-11-15T05:14:28;45.80;;;25.40;;
59685;SDS011;45554;51.096;16.976;2022-11-15T05:17:15;48.90;;;26.60;;
59685;SDS011;45554;51.096;16.976;2022-11-15T05:20:01;50.50;;;27.80;;
59685;SDS011;45554;51.096;16.976;2022-11-15T05:22:48;52.70;;;26.90;;
59685;SDS011;45554;51.096;16.976;2022-11-15T05:25:37;50.00;;;27.80;;
59685;SDS011;45554;51.096;16.976;2022-11-15T05:28:24;48.20;;;26.40;;
59685;SDS011;45554;51.096;16.976;2022-11-15T05:31:11;45.10;;;25.50;;
59685;SDS011;45554;51.096;16.976;2022-11-15T05:36:46;52.30;;;27.90;;
59685;SDS011;45554;51.096;16.976;2022-11-15T05:39:33;49.60;;;27.30;;
59685;SDS011;45554;51.096;16.976;2022-11-15T05:42:19;61.60;;;30.20;;
59685;SDS011;45554;51.096;16.976;2022-11-15T05:45:06;54.50;;;27.40;;
59685;SDS011;45554;51.096;16.976;2022-11-15T05:50:44;54.90;;;28.10;;
59685;SDS011;45554;51.096;16.976;2022-11-15T05:53:35;53.10;;;28.60;;
59685;SDS011;45554;51.096;16.976;2022-11-15T05:56:22;50.90;;;27.60;;
59685;SDS011;45554;51.096;16.976;2022-11-15T05:59:09;51.50;;;29.00;;
59685;SDS011;45554;51.096;16.976;2022-11-15T06:01:56;56.60;;;30.40;;
59685;SDS011;45554;51.096;16.976;2022-11-15T06:04:43;53.60;;;29.60;;
59685;SDS011;45554;51.096;16.976;2022-11-15T06:07:32;58.40;;;28.50;;
59685;SDS011;45554;51.096;16.976;2022-11-15T06:10:18;53.00;;;29.40;;
59685;SDS011;45554;51.096;16.976;2022-11-15T06:13:05;48.40;;;25.30;;
59685;SDS011;45554;51.096;16.976;2022-11-15T06:15:54;50.90;;;28.40;;
59685;SDS011;45554;51.096;16.976;2022-11-15T06:18:42;49.00;;;26.90;;
59685;SDS011;45554;51.096;16.976;2022-11-15T06:21:28;48.30;;;26.10;;
59685;SDS011;45554;51.096;16.976;2022-11-15T06:24:15;51.00;;;27.10;;
59685;SDS011;45554;51.096;16.976;2022-11-15T06:27:02;46.10;;;25.60;;
59685;SDS011;45554;51.096;16.976;2022-11-15T06:29:48;55.10;;;26.40;;
59685;SDS011;45554;51.096;16.976;2022-11-15T06:32:35;56.40;;;28.90;;
59685;SDS011;45554;51.096;16.976;2022-11-15T06:35:21;46.00;;;26.70;;
59685;SDS011;45554;51.096;16.976;2022-11-15T06:38:09;51.40;;;28.00;;
59685;SDS011;45554;51.096;16.976;2022-11-15T06:41:06;60.30;;;29.60;;
59685;SDS011;45554;51.096;16.976;2022-11-15T06:43:54;49.80;;;26.20;;
59685;SDS011;45554;51.096;16.976;2022-11-15T06:46:41;49.60;;;27.80;;
59685;SDS011;45554;51.096;16.976;2022-11-15T06:49:28;52.10;;;28.30;;
59685;SDS011;45554;51.096;16.976;2022-11-15T06:52:14;49.30;;;27.50;;
59685;SDS011;45554;51.096;16.976;2022-11-15T06:55:01;50.30;;;28.20;;
59685;SDS011;45554;51.096;16.976;2022-11-15T06:57:49;48.30;;;26.50;;
59685;SDS011;45554;51.096;16.976;2022-11-15T07:00:37;51.10;;;26.90;;
59685;SDS011;45554;51.096;16.976;2022-11-15T07:03:24;45.80;;;27.50;;
59685;SDS011;45554;51.096;16.976;2022-11-15T07:06:11;50.10;;;26.30;;
59685;SDS011;45554;51.096;16.976;2022-11-15T07:08:57;51.20;;;26.40;;
59685;SDS011;45554;51.096;16.976;2022-11-15T07:11:44;50.20;;;26.80;;
59685;SDS011;45554;51.096;16.976;2022-11-15T07:14:30;50.00;;;26.10;;
59685;SDS011;45554;51.096;16.976;2022-11-15T07:17:17;51.40;;;26.00;;
59685;SDS011;45554;51.096;16.976;2022-11-15T07:20:06;48.00;;;26.80;;
59685;SDS011;45554;51.096;16.976;2022-11-15T07:23:03;49.10;;;26.80;;
59685;SDS011;45554;51.096;16.976;2022-11-15T07:25:51;50.00;;;25.90;;
59685;SDS011;45554;51.096;16.976;2022-11-15T07:28:38;54.30;;;28.00;;
59685;SDS011;45554;51.096;16.976;2022-11-15T07:31:25;48.10;;;27.50;;
59685;SDS011;45554;51.096;16.976;2022-11-15T07:34:12;48.90;;;25.80;;
59685;SDS011;45554;51.096;16.976;2022-11-15T07:36:59;48.20;;;27.50;;
59685;SDS011;45554;51.096;16.976;2022-11-15T07:39:45;44.50;;;26.70;;
59685;SDS011;45554;51.096;16.976;2022-11-15T07:42:31;47.10;;;26.40;;
59685;SDS011;45554;51.096;16.976;2022-11-15T07:45:43;48.90;;;26.40;;
59685;SDS011;45554;51.096;16.976;2022-11-15T07:48:31;45.90;;;25.00;;
59685;SDS011;45554;51.096;16.976;2022-11-15T07:51:29;45.30;;;26.40;;
59685;SDS011;45554;51.096;16.976;2022-11-15T07:54:16;45.20;;;26.60;;
59685;SDS011;45554;51.096;16.976;2022-11-15T07:57:04;47.40;;;25.90;;
59685;SDS011;45554;51.096;16.976;2022-11-15T07:59:53;51.50;;;25.30;;
59685;SDS011;45554;51.096;16.976;2022-11-15T08:02:40;49.40;;;28.10;;
59685;SDS011;45554;51.096;16.976;2022-11-15T08:05:28;47.80;;;25.90;;
59685;SDS011;45554;51.096;16.976;2022-11-15T08:08:17;45.60;;;26.10;;
59685;SDS011;45554;51.096;16.976;2022-11-15T08:11:04;44.70;;;25.90;;
59685;SDS011;45554;51.096;16.976;2022-11-15T08:13:51;46.70;;;27.80;;
59685;SDS011;45554;51.096;16.976;2022-11-15T08:16:42;47.00;;;25.40;;
59685;SDS011;45554;51.096;16.976;2022-11-15T08:19:29;46.70;;;26.10;;
59685;SDS011;45554;51.096;16.976;2022-11-15T08:22:23;44.00;;;25.90;;
59685;SDS011;45554;51.096;16.976;2022-11-15T08:25:09;42.70;;;25.30;;
59685;SDS011;45554;51.096;16.976;2022-11-15T08:27:58;43.40;;;24.60;;
59685;SDS011;45554;51.096;16.976;2022-11-15T08:30:47;42.60;;;24.90;;
59685;SDS011;45554;51.096;16.976;2022-11-15T08:33:37;39.20;;;24.10;;
59685;SDS011;45554;51.096;16.976;2022-11-15T08:36:24;45.00;;;24.50;;
59685;SDS011;45554;51.096;16.976;2022-11-15T08:39:11;40.50;;;23.80;;
59685;SDS011;45554;51.096;16.976;2022-11-15T08:42:00;41.50;;;24.20;;
59685;SDS011;45554;51.096;16.976;2022-11-15T08:44:47;42.10;;;24.10;;
59685;SDS011;45554;51.096;16.976;2022-11-15T08:47:34;41.40;;;24.40;;
59685;SDS011;45554;51.096;16.976;2022-11-15T08:50:20;42.20;;;24.00;;
59685;SDS011;45554;51.096;16.976;2022-11-15T08:53:07;44.50;;;25.10;;
59685;SDS011;45554;51.096;16.976;2022-11-15T08:55:55;40.20;;;23.70;;
59685;SDS011;45554;51.096;16.976;2022-11-15T08:58:45;40.10;;;23.50;;
59685;SDS011;45554;51.096;16.976;2022-11-15T09:01:35;37.50;;;24.00;;
59685;SDS011;45554;51.096;16.976;2022-11-15T09:04:23;40.50;;;23.60;;
59685;SDS011;45554;51.096;16.976;2022-11-15T09:07:10;35.50;;;21.40;;
59685;SDS011;45554;51.096;16.976;2022-11-15T09:09:57;38.90;;;21.00;;
59685;SDS011;45554;51.096;16.976;2022-11-15T09:12:44;39.10;;;22.00;;
59685;SDS011;45554;51.096;16.976;2022-11-15T09:15:35;35.40;;;21.50;;
59685;SDS011;45554;51.096;16.976;2022-11-15T09:18:23;35.80;;;20.80;;
59685;SDS011;45554;51.096;16.976;2022-11-15T09:21:12;35.20;;;19.70;;
59685;SDS011;45554;51.096;16.976;2022-11-15T09:23:58;33.40;;;19.70;;
59685;SDS011;45554;51.096;16.976;2022-11-15T09:26:45;33.70;;;20.70;;
59685;SDS011;45554;51.096;16.976;2022-11-15T09:29:32;33.40;;;20.70;;
59685;SDS011;45554;51.096;16.976;2022-11-15T09:32:18;34.40;;;19.60;;
59685;SDS011;45554;51.096;16.976;2022-11-15T09:35:05;32.40;;;19.80;;
59685;SDS011;45554;51.096;16.976;2022-11-15T09:37:51;34.70;;;19.40;;
59685;SDS011;45554;51.096;16.976;2022-11-15T09:40:42;40.00;;;21.80;;
59685;SDS011;45554;51.096;16.976;2022-11-15T09:46:53;33.40;;;20.40;;
59685;SDS011;45554;51.096;16.976;2022-11-15T09:53:14;32.00;;;18.00;;
59685;SDS011;45554;51.096;16.976;2022-11-15T09:56:18;30.30;;;18.90;;
59685;SDS011;45554;51.096;16.976;2022-11-15T10:01:48;29.90;;;18.20;;
59685;SDS011;45554;51.096;16.976;2022-11-15T10:04:17;30.00;;;19.50;;
59685;SDS011;45554;51.096;16.976;2022-11-15T10:06:52;31.60;;;19.70;;
59685;SDS011;45554;51.096;16.976;2022-11-15T10:09:28;28.30;;;17.80;;
59685;SDS011;45554;51.096;16.976;2022-11-15T10:12:03;29.20;;;18.40;;
59685;SDS011;45554;51.096;16.976;2022-11-15T10:14:31;27.20;;;17.90;;
59685;SDS011;45554;51.096;16.976;2022-11-15T10:20:02;25.90;;;16.40;;
59685;SDS011;45554;51.096;16.976;2022-11-15T10:23:04;27.30;;;16.80;;
59685;SDS011;45554;51.096;16.976;2022-11-15T10:25:30;28.10;;;16.50;;
59685;SDS011;45554;51.096;16.976;2022-11-15T10:30:50;25.20;;;16.70;;
59685;SDS011;45554;51.096;16.976;2022-11-15T10:33:31;29.20;;;17.50;;
59685;SDS011;45554;51.096;16.976;2022-11-15T10:38:57;24.70;;;15.30;;
59685;SDS011;45554;51.096;16.976;2022-11-15T10:44:08;24.80;;;15.80;;
59685;SDS011;45554;51.096;16.976;2022-11-15T10:46:40;31.00;;;18.60;;
59685;SDS011;45554;51.096;16.976;2022-11-15T10:49:15;28.00;;;18.00;;
59685;SDS011;45554;51.096;16.976;2022-11-15T10:51:48;25.50;;;16.30;;
59685;SDS011;45554;51.096;16.976;2022-11-15T10:54:36;26.80;;;16.40;;
59685;SDS011;45554;51.096;16.976;2022-11-15T10:57:19;27.60;;;17.10;;
59685;SDS011;45554;51.096;16.976;2022-11-15T10:59:57;26.10;;;15.30;;
59685;SDS011;45554;51.096;16.976;2022-11-15T11:02:29;25.80;;;16.40;;
59685;SDS011;45554;51.096;16.976;2022-11-15T11:05:01;22.90;;;15.00;;
59685;SDS011;45554;51.096;16.976;2022-11-15T11:07:33;24.50;;;15.00;;
59685;SDS011;45554;51.096;16.976;2022-11-15T11:10:04;23.50;;;15.10;;
59685;SDS011;45554;51.096;16.976;2022-11-15T11:13:40;23.10;;;13.20;;
59685;SDS011;45554;51.096;16.976;2022-11-15T11:21:49;24.40;;;12.60;;
59685;SDS011;45554;51.096;16.976;2022-11-15T11:24:30;22.90;;;13.90;;
59685;SDS011;45554;51.096;16.976;2022-11-15T11:27:28;22.40;;;13.20;;
59685;SDS011;45554;51.096;16.976;2022-11-15T11:32:59;23.30;;;13.40;;
59685;SDS011;45554;51.096;16.976;2022-11-15T11:35:43;19.00;;;11.70;;
59685;SDS011;45554;51.096;16.976;2022-11-15T11:38:32;19.50;;;11.90;;
59685;SDS011;45554;51.096;16.976;2022-11-15T11:47:10;17.50;;;12.30;;
59685;SDS011;45554;51.096;16.976;2022-11-15T11:57:53;16.70;;;9.90;;
59685;SDS011;45554;51.096;16.976;2022-11-15T12:00:38;14.60;;;9.70;;
59685;SDS011;45554;51.096;16.976;2022-11-15T12:03:14;15.90;;;9.80;;
59685;SDS011;45554;51.096;16.976;2022-11-15T12:06:04;15.30;;;10.30;;
59685;SDS011;45554;51.096;16.976;2022-11-15T12:11:24;16.60;;;9.70;;
59685;SDS011;45554;51.096;16.976;2022-11-15T12:14:01;15.10;;;9.40;;
59685;SDS011;45554;51.096;16.976;2022-11-15T12:16:42;14.10;;;10.40;;
59685;SDS011;45554;51.096;16.976;2022-11-15T12:19:14;15.30;;;9.80;;
59685;SDS011;45554;51.096;16.976;2022-11-15T12:21:43;15.90;;;10.50;;
59685;SDS011;45554;51.096;16.976;2022-11-15T12:24:34;17.30;;;10.70;;
59685;SDS011;45554;51.096;16.976;2022-11-15T12:27:10;17.00;;;11.10;;
59685;SDS011;45554;51.096;16.976;2022-11-15T12:29:43;15.80;;;10.70;;
59685;SDS011;45554;51.096;16.976;2022-11-15T12:34:57;14.60;;;8.90;;
59685;SDS011;45554;51.096;16.976;2022-11-15T12:42:41;14.50;;;9.20;;
59685;SDS011;45554;51.096;16.976;2022-11-15T12:45:34;16.20;;;9.50;;
59685;SDS011;45554;51.096;16.976;2022-11-15T13:04:35;16.10;;;9.90;;
59685;SDS011;45554;51.096;16.976;2022-11-15T13:07:00;15.90;;;8.80;;
59685;SDS011;45554;51.096;16.976;2022-11-15T13:12:07;13.70;;;9.10;;
59685;SDS011;45554;51.096;16.976;2022-11-15T13:30:29;12.90;;;8.00;;
59685;SDS011;45554;51.096;16.976;2022-11-15T13:33:41;12.80;;;8.30;;
59685;SDS011;45554;51.096;16.976;2022-11-15T13:38:44;18.70;;;10.20;;
59685;SDS011;45554;51.096;16.976;2022-11-15T13:41:20;15.30;;;9.80;;
59685;SDS011;45554;51.096;16.976;2022-11-15T13:43:51;16.10;;;10.10;;
59685;SDS011;45554;51.096;16.976;2022-11-15T13:46:35;16.30;;;10.20;;
59685;SDS011;45554;51.096;16.976;2022-11-15T13:49:04;16.00;;;10.70;;
59685;SDS011;45554;51.096;16.976;2022-11-15T13:51:53;16.00;;;10.50;;
59685;SDS011;45554;51.096;16.976;2022-11-15T13:54:55;18.90;;;12.10;;
59685;SDS011;45554;51.096;16.976;2022-11-15T13:57:51;18.40;;;12.50;;
59685;SDS011;45554;51.096;16.976;2022-11-15T14:00:37;18.10;;;12.00;;
59685;SDS011;45554;51.096;16.976;2022-11-15T14:03:30;16.90;;;12.40;;
59685;SDS011;45554;51.096;16.976;2022-11-15T14:06:13;20.60;;;12.50;;
59685;SDS011;45554;51.096;16.976;2022-11-15T14:09:14;18.90;;;11.90;;
59685;SDS011;45554;51.096;16.976;2022-11-15T14:11:54;15.00;;;11.00;;
59685;SDS011;45554;51.096;16.976;2022-11-15T14:18:43;22.10;;;13.50;;
59685;SDS011;45554;51.096;16.976;2022-11-15T14:24:42;16.50;;;11.40;;
59685;SDS011;45554;51.096;16.976;2022-11-15T14:27:24;21.20;;;13.10;;
59685;SDS011;45554;51.096;16.976;2022-11-15T14:30:05;21.20;;;13.70;;
59685;SDS011;45554;51.096;16.976;2022-11-15T14:34:18;18.40;;;12.30;;
59685;SDS011;45554;51.096;16.976;2022-11-15T14:36:47;20.90;;;13.20;;
59685;SDS011;45554;51.096;16.976;2022-11-15T14:39:15;19.00;;;12.70;;
59685;SDS011;45554;51.096;16.976;2022-11-15T14:41:49;22.10;;;13.20;;
59685;SDS011;45554;51.096;16.976;2022-11-15T14:44:42;20.80;;;13.70;;
59685;SDS011;45554;51.096;16.976;2022-11-15T14:48:17;17.40;;;12.90;;
59685;SDS011;45554;51.096;16.976;2022-11-15T14:57:12;25.90;;;17.60;;
59685;SDS011;45554;51.096;16.976;2022-11-15T14:59:52;25.20;;;16.50;;
59685;SDS011;45554;51.096;16.976;2022-11-15T15:05:15;24.50;;;15.30;;
59685;SDS011;45554;51.096;16.976;2022-11-15T15:07:49;24.90;;;15.90;;
59685;SDS011;45554;51.096;16.976;2022-11-15T15:10:19;22.10;;;15.00;;
59685;SDS011;45554;51.096;16.976;2022-11-15T15:13:19;25.60;;;15.00;;
59685;SDS011;45554;51.096;16.976;2022-11-15T15:15:50;32.90;;;16.50;;
59685;SDS011;45554;51.096;16.976;2022-11-15T15:18:20;27.50;;;15.50;;
59685;SDS011;45554;51.096;16.976;2022-11-15T15:20:51;23.80;;;15.70;;
59685;SDS011;45554;51.096;16.976;2022-11-15T15:23:34;26.40;;;15.90;;
59685;SDS011;45554;51.096;16.976;2022-11-15T15:26:03;25.70;;;15.00;;
59685;SDS011;45554;51.096;16.976;2022-11-15T15:28:30;25.70;;;15.70;;
59685;SDS011;45554;51.096;16.976;2022-11-15T15:31:01;26.70;;;15.70;;
59685;SDS011;45554;51.096;16.976;2022-11-15T15:33:29;23.50;;;13.90;;
59685;SDS011;45554;51.096;16.976;2022-11-15T15:35:57;26.30;;;14.80;;
59685;SDS011;45554;51.096;16.976;2022-11-15T15:38:26;23.70;;;15.00;;
59685;SDS011;45554;51.096;16.976;2022-11-15T15:40:54;28.00;;;16.10;;
59685;SDS011;45554;51.096;16.976;2022-11-15T15:43:22;28.80;;;17.60;;
59685;SDS011;45554;51.096;16.976;2022-11-15T15:45:50;30.40;;;17.20;;
59685;SDS011;45554;51.096;16.976;2022-11-15T15:48:18;30.40;;;18.30;;
59685;SDS011;45554;51.096;16.976;2022-11-15T15:50:46;26.90;;;17.50;;
59685;SDS011;45554;51.096;16.976;2022-11-15T15:53:15;28.90;;;19.00;;
59685;SDS011;45554;51.096;16.976;2022-11-15T15:55:42;28.10;;;16.70;;
59685;SDS011;45554;51.096;16.976;2022-11-15T15:58:10;26.60;;;15.90;;
59685;SDS011;45554;51.096;16.976;2022-11-15T16:00:38;26.30;;;16.80;;
59685;SDS011;45554;51.096;16.976;2022-11-15T16:03:06;26.00;;;16.50;;
59685;SDS011;45554;51.096;16.976;2022-11-15T16:05:34;28.00;;;15.90;;
59685;SDS011;45554;51.096;16.976;2022-11-15T16:08:02;29.80;;;17.80;;
59685;SDS011;45554;51.096;16.976;2022-11-15T16:10:31;30.00;;;18.20;;
59685;SDS011;45554;51.096;16.976;2022-11-15T16:13:01;31.00;;;18.10;;
59685;SDS011;45554;51.096;16.976;2022-11-15T16:15:30;37.10;;;21.80;;
59685;SDS011;45554;51.096;16.976;2022-11-15T16:17:59;71.10;;;33.70;;
59685;SDS011;45554;51.096;16.976;2022-11-15T16:20:31;104.30;;;47.20;;
59685;SDS011;45554;51.096;16.976;2022-11-15T16:23:00;80.60;;;37.10;;
59685;SDS011;45554;51.096;16.976;2022-11-15T16:25:44;75.70;;;39.80;;
59685;SDS011;45554;51.096;16.976;2022-11-15T16:28:30;73.90;;;37.40;;
59685;SDS011;45554;51.096;16.976;2022-11-15T16:31:01;64.00;;;32.60;;
59685;SDS011;45554;51.096;16.976;2022-11-15T16:33:31;56.80;;;30.70;;
59685;SDS011;45554;51.096;16.976;2022-11-15T16:36:00;51.70;;;29.10;;
59685;SDS011;45554;51.096;16.976;2022-11-15T16:38:28;48.50;;;27.40;;
59685;SDS011;45554;51.096;16.976;2022-11-15T16:40:57;52.70;;;26.80;;
59685;SDS011;45554;51.096;16.976;2022-11-15T16:43:24;44.20;;;25.20;;
59685;SDS011;45554;51.096;16.976;2022-11-15T16:45:52;39.40;;;23.40;;
59685;SDS011;45554;51.096;16.976;2022-11-15T16:48:22;41.00;;;24.20;;
59685;SDS011;45554;51.096;16.976;2022-11-15T16:50:56;44.50;;;24.60;;
59685;SDS011;45554;51.096;16.976;2022-11-15T16:53:25;44.30;;;23.10;;
59685;SDS011;45554;51.096;16.976;2022-11-15T16:55:54;38.70;;;21.60;;
59685;SDS011;45554;51.096;16.976;2022-11-15T16:58:22;35.00;;;20.80;;
59685;SDS011;45554;51.096;16.976;2022-11-15T17:00:51;36.50;;;21.20;;
59685;SDS011;45554;51.096;16.976;2022-11-15T17:03:21;38.00;;;21.20;;
59685;SDS011;45554;51.096;16.976;2022-11-15T17:05:50;37.50;;;20.70;;
59685;SDS011;45554;51.096;16.976;2022-11-15T17:08:18;35.10;;;20.20;;
59685;SDS011;45554;51.096;16.976;2022-11-15T17:10:48;37.30;;;21.20;;
59685;SDS011;45554;51.096;16.976;2022-11-15T17:13:16;38.70;;;21.80;;
59685;SDS011;45554;51.096;16.976;2022-11-15T17:15:44;37.70;;;21.70;;
59685;SDS011;45554;51.096;16.976;2022-11-15T17:18:12;38.70;;;21.80;;
59685;SDS011;45554;51.096;16.976;2022-11-15T17:20:42;40.50;;;22.50;;
59685;SDS011;45554;51.096;16.976;2022-11-15T17:23:13;36.90;;;22.20;;
59685;SDS011;45554;51.096;16.976;2022-11-15T17:25:41;45.50;;;21.80;;
59685;SDS011;45554;51.096;16.976;2022-11-15T17:28:09;35.30;;;21.50;;
59685;SDS011;45554;51.096;16.976;2022-11-15T17:30:39;39.10;;;21.00;;
59685;SDS011;45554;51.096;16.976;2022-11-15T17:33:08;41.90;;;22.30;;
59685;SDS011;45554;51.096;16.976;2022-11-15T17:35:35;44.80;;;23.50;;
59685;SDS011;45554;51.096;16.976;2022-11-15T17:38:03;42.00;;;23.20;;
59685;SDS011;45554;51.096;16.976;2022-11-15T17:40:31;44.70;;;23.10;;
59685;SDS011;45554;51.096;16.976;2022-11-15T17:42:59;51.00;;;25.00;;
59685;SDS011;45554;51.096;16.976;2022-11-15T17:45:27;47.00;;;24.90;;
59685;SDS011;45554;51.096;16.976;2022-11-15T17:47:55;34.00;;;22.10;;
59685;SDS011;45554;51.096;16.976;2022-11-15T17:50:23;42.10;;;22.90;;
59685;SDS011;45554;51.096;16.976;2022-11-15T17:52:50;46.20;;;23.00;;
59685;SDS011;45554;51.096;16.976;2022-11-15T17:55:18;43.50;;;24.00;;
59685;SDS011;45554;51.096;16.976;2022-11-15T17:57:47;44.40;;;24.00;;
59685;SDS011;45554;51.096;16.976;2022-11-15T18:00:15;48.80;;;23.90;;
59685;SDS011;45554;51.096;16.976;2022-11-15T18:02:47;43.10;;;23.40;;
59685;SDS011;45554;51.096;16.976;2022-11-15T18:05:14;49.90;;;24.60;;
59685;SDS011;45554;51.096;16.976;2022-11-15T18:07:43;49.40;;;24.50;;
59685;SDS011;45554;51.096;16.976;2022-11-15T18:10:10;41.50;;;22.90;;
59685;SDS011;45554;51.096;16.976;2022-11-15T18:12:38;44.70;;;23.40;;
59685;SDS011;45554;51.096;16.976;2022-11-15T18:15:06;44.70;;;25.70;;
59685;SDS011;45554;51.096;16.976;2022-11-15T18:17:35;47.90;;;24.20;;
59685;SDS011;45554;51.096;16.976;2022-11-15T18:20:03;41.90;;;23.80;;
59685;SDS011;45554;51.096;16.976;2022-11-15T18:22:32;45.50;;;24.90;;